• Join FlightAware (Why Join?)
  • Login
  • US Flag 
06:56AM EDT


 

Airport Tracker/Info


-or-


 

Live Flight TrackerFlight Track Log ✈ C-GMYJ ✈ 22-Aug-2013 ✈ KCTB - CYXX

Flight Track Log - Related Links

Times and Time Zones

All times are in EDT time to prevent confusion due to time zone crossing. See the C-GMYJ flight status page for this flight to view local times or setup timezone preferences in your user account.

Time Position Orientation Groundspeed Altitude Reporting Facility
EDT Latitude Longitude Course Direction KTS MPH feet Rate Location/Type
01:16PM 48.7200 -113.0844 278° West 114 131 11,800  Level Salt Lake Center
01:17PM 48.7242 -113.1311 278° West 114 131 12,200 360 Climbing Salt Lake Center
01:18PM 48.7317 -113.1864 282° West 112 129 12,600 300 Climbing Salt Lake Center
01:19PM 48.7364 -113.2314 279° West 111 128 12,900 240 Climbing Salt Lake Center
01:20PM 48.7408 -113.2767 278° West 110 127 13,100 240 Climbing Salt Lake Center
01:21PM 48.7450 -113.3231 278° West 110 127 13,400 300 Climbing Salt Lake Center
01:22PM 48.7492 -113.3686 278° West 110 127 13,800 180 Climbing Salt Lake Center
01:23PM 48.7525 -113.4133 276° West 109 125 13,800  Level Salt Lake Center
01:24PM 48.7556 -113.4711 275° West 111 128 13,900  Climbing Salt Lake Center
01:25PM 48.7589 -113.5228 276° West 116 133 13,900 -60 Level Salt Lake Center
01:26PM 48.7636 -113.5753 278° West 120 138 13,800 -60 Descending Salt Lake Center
01:27PM 48.7697 -113.6297 280° West 125 144 13,800  Level Salt Lake Center
01:28PM 48.7747 -113.6831 278° West 127 146 13,900  Climbing Salt Lake Center
01:29PM 48.7789 -113.7350 277° West 127 146 13,800 -60 Descending Salt Lake Center
01:30PM 48.7856 -113.7992 279° West 128 147 13,800  Level Salt Lake Center
01:31PM 48.7886 -113.8528 275° West 128 147 13,800  Level Salt Lake Center
01:32PM 48.7950 -113.9061 280° West 129 148 13,900  Climbing Salt Lake Center
01:33PM 48.7989 -113.9594 276° West 128 147 13,900  Level Salt Lake Center
01:35PM 48.8047 -114.0111 280° West 127 146 13,900  Level Salt Lake Center
01:36PM 48.8119 -114.0750 280° West 128 147 13,900 -60 Level Salt Lake Center
01:37PM 48.8167 -114.1286 278° West 128 147 13,800 -60 Descending Salt Lake Center
01:39PM 48.8242 -114.2361 276° West 128 147 13,800 -60 Level Seattle Center
01:40PM 48.8297 -114.2886 279° West 128 147 13,700  Descending Salt Lake Center
01:41PM 48.8358 -114.3414 280° West 128 147 13,800  Climbing Salt Lake Center
01:42PM 48.8400 -114.4025 276° West 125 144 13,800  Level Salt Lake Center
01:43PM 48.8431 -114.4547 275° West 124 143 13,800  Level Salt Lake Center
01:44PM 48.8464 -114.5086 275° West 126 145 13,800  Level Salt Lake Center
01:45PM 48.8494 -114.5622 275° West 127 146 13,900  Climbing Salt Lake Center
01:46PM 48.8542 -114.6147 278° West 126 145 13,900  Level Salt Lake Center
01:47PM 48.8575 -114.6667 276° West 125 144 13,900  Level Seattle Center
01:48PM 48.8631 -114.7208 279° West 128 147 14,000  Climbing Seattle Center
01:49PM 48.8697 -114.7839 279° West 126 145 13,900  Descending Salt Lake Center
01:50PM 48.8742 -114.8356 277° West 126 145 14,000  Climbing Salt Lake Center
01:51PM 48.8800 -114.8872 280° West 124 143 13,900 -60 Descending Salt Lake Center
01:52PM 48.8864 -114.9392 281° West 125 144 13,900  Level Salt Lake Center
01:53PM 48.8900 -114.9931 276° West 127 146 13,900  Level Seattle Center
01:54PM 48.8933 -115.0467 275° West 128 147 13,900  Level Seattle Center
01:55PM 48.8969 -115.1006 276° West 129 148 13,900 -120 Level Seattle Center
01:56PM 48.9019 -115.1544 278° West 129 148 13,700 -300 Descending Seattle Center
01:57PM 48.9069 -115.2142 277° West 138 159 13,400 -300 Descending Seattle Center
01:58PM 48.9106 -115.2753 275° West 144 166 13,100 -360 Descending Seattle Center
01:59PM 48.9139 -115.3500 274° West 148 170 12,700 -360 Descending Seattle Center
02:00PM 48.9183 -115.4133 276° West 150 173 12,400 -300 Descending Seattle Center
02:01PM 48.9239 -115.4789 277° West 154 177 12,100 -240 Descending Seattle Center
02:02PM 48.9286 -115.5417 277° West 153 176 12,000 -120 Descending Seattle Center
02:03PM 48.9333 -115.6019 277° West 146 168 11,900 -120 Descending Seattle Center
02:04PM 48.9378 -115.6600 277° West 141 162 11,800  Descending Seattle Center
02:05PM 48.9425 -115.7158 277° West 136 157 11,900 120 Climbing Seattle Center
02:06PM 48.9333 -115.7333 231° Southwest 140 161 12,100 120 Climbing Vancouver Center
02:07PM 48.9333 -115.7833 270° West 140 161 12,200  Climbing Vancouver Center
02:08PM 48.9333 -115.8333 270° West 140 161 12,100 -120 Descending Vancouver Center
02:09PM 48.9500 -115.9167 287° West 140 161 12,000 -120 Descending Vancouver Center
02:10PM 48.9500 -115.9667 270° West 140 161 11,900 -120 Descending Vancouver Center
02:11PM 48.9500 -116.0167 270° West 140 161 11,800 -60 Descending Vancouver Center
02:12PM 48.9667 -116.0833 291° West 140 161 11,800  Level Vancouver Center
02:13PM 48.9667 -116.1333 270° West 140 161 11,900 60 Climbing Vancouver Center
02:14PM 48.9667 -116.1833 270° West 140 161 12,000  Climbing Vancouver Center
02:15PM 48.9667 -116.2667 270° West 140 161 11,900 -60 Descending Vancouver Center
02:16PM 48.9500 -116.3167 243° Southwest 140 161 11,900  Level Vancouver Center
02:17PM 48.9667 -116.3667 297° West 140 161 11,900  Level Vancouver Center
02:18PM 48.9667 -116.4167 270° West 140 161 11,900  Level Vancouver Center
02:19PM 48.9667 -116.5000 270° West 140 161 12,000  Climbing Vancouver Center
02:20PM 48.9667 -116.5500 270° West 140 161 11,900 -60 Descending Vancouver Center
02:21PM 48.9833 -116.6000 297° West 140 161 11,900  Level Vancouver Center
02:22PM 48.9833 -116.6667 270° West 140 161 11,900  Level Vancouver Center
02:23PM 48.9833 -116.7167 270° West 140 161 11,900  Level Vancouver Center
02:24PM 48.9833 -116.7667 270° West 140 161 11,900  Level Vancouver Center
02:25PM 49.0000 -116.8167 297° West 140 161 11,900  Level Vancouver Center
02:26PM 49.0167 -116.8667 297° West 130 150 11,900 -60 Level Vancouver Center
02:27PM 49.0167 -116.9500 270° West 160 184 11,800  Descending Vancouver Center
02:28PM 49.0167 -117.0000 270° West 140 161 12,000 60 Climbing Vancouver Center
02:29PM 49.0333 -117.0500 297° West 120 138 12,000  Level Vancouver Center
02:30PM 49.0333 -117.1167 270° West 140 161 12,000 -60 Level Vancouver Center
02:31PM 49.0500 -117.1667 297° West 150 173 11,900 -60 Descending Vancouver Center
02:32PM 49.0500 -117.2167 270° West 140 161 11,900 -60 Level Vancouver Center
02:33PM 49.0667 -117.3000 287° West 140 161 11,800 -60 Descending Vancouver Center
02:34PM 49.0667 -117.3500 270° West 140 161 11,800  Level Vancouver Center
02:35PM 49.0833 -117.4167 291° West 140 161 11,800  Level Vancouver Center
02:36PM 49.1000 -117.4667 297° West 140 161 11,900  Climbing Vancouver Center
02:37PM 49.1000 -117.5167 270° West 140 161 11,900  Level Vancouver Center
02:38PM 49.1000 -117.6000 270° West 140 161 11,900  Level Vancouver Center
02:39PM 49.1000 -117.6500 270° West 140 161 11,900  Level Vancouver Center
02:40PM 49.1167 -117.7000 297° West 140 161 11,900  Level Vancouver Center
02:41PM 49.1333 -117.7833 287° West 140 161 11,900  Level Vancouver Center
02:42PM 49.1333 -117.8333 270° West 150 173 11,900 -60 Level Vancouver Center
02:43PM 49.1333 -117.9000 270° West 140 161 11,800 -60 Descending Vancouver Center
02:44PM 49.1333 -117.9500 270° West 140 161 11,800  Level Vancouver Center
02:45PM 49.1333 -118.0000 270° West 140 161 11,800  Level Vancouver Center
02:46PM 49.1500 -118.0833 287° West 140 161 11,900  Climbing Vancouver Center
02:47PM 49.1667 -118.1333 297° West 140 161 11,800  Descending Vancouver Center
02:48PM 49.1667 -118.2000 270° West 140 161 11,900  Climbing Vancouver Center
02:49PM 49.1667 -118.2500 270° West 150 173 11,900  Level Vancouver Center
02:50PM 49.1667 -118.3000 270° West 140 161 11,900  Level Vancouver Center
02:51PM 49.1833 -118.3833 287° West 140 161 11,900  Level Vancouver Center
02:52PM 49.2000 -118.4333 297° West 140 161 11,900  Level Vancouver Center
02:53PM 49.2000 -118.5167 270° West 140 161 11,900  Level Vancouver Center
02:54PM 49.2000 -118.5667 270° West 140 161 11,900  Level Vancouver Center
02:55PM 49.2000 -118.6167 270° West 140 161 11,900  Level Vancouver Center
02:56PM 49.2167 -118.6833 291° West 140 161 11,900  Level Vancouver Center
02:57PM 49.2333 -118.7333 297° West 140 161 11,900  Level Vancouver Center
02:58PM 49.2333 -118.7833 270° West 140 161 11,900  Level Vancouver Center
02:59PM 49.2500 -118.8667 287° West 150 173 11,900  Level Vancouver Center
03:00PM 49.2500 -118.9167 270° West 140 161 11,900  Level Vancouver Center
03:01PM 49.2500 -118.9833 270° West 140 161 11,900 -60 Level Vancouver Center
03:02PM 49.2500 -119.0333 270° West 150 173 11,800  Descending Vancouver Center
03:03PM 49.2500 -119.0833 270° West 140 161 11,900 60 Climbing Vancouver Center
03:04PM 49.2667 -119.1667 287° West 140 161 12,000  Climbing Vancouver Center
03:05PM 49.2667 -119.2167 270° West 150 173 11,900 -120 Descending Vancouver Center
03:06PM 49.2667 -119.3000 270° West 150 173 11,800 -60 Descending Vancouver Center
03:07PM 49.2667 -119.3500 270° West 150 173 11,800  Level Vancouver Center
03:08PM 49.2667 -119.4167 270° West 150 173 11,800  Level Vancouver Center
03:09PM 49.2667 -119.4667 270° West 140 161 11,900  Climbing Vancouver Center
03:10PM 49.2667 -119.5333 270° West 140 161 11,900  Level Vancouver Center
03:11PM 49.2833 -119.6000 291° West 140 161 11,900  Level Vancouver Center
03:12PM 49.3000 -119.6500 297° West 140 161 12,000  Climbing Vancouver Center
03:13PM 49.3000 -119.7333 270° West 140 161 11,900 -60 Descending Vancouver Center
03:14PM 49.3000 -119.7833 270° West 150 173 11,900  Level Vancouver Center
03:15PM 49.3000 -119.8500 270° West 150 173 11,900 -60 Level Vancouver Center
03:16PM 49.3000 -119.9000 270° West 150 173 11,800  Descending Vancouver Center
03:17PM 49.3000 -119.9500 270° West 140 161 11,900  Climbing Vancouver Center
03:18PM 49.3167 -120.0333 287° West 140 161 11,900 -60 Level Vancouver Center
03:19PM 49.3167 -120.0833 270° West 150 173 11,800  Descending Vancouver Center
03:20PM 49.3167 -120.1333 270° West 140 161 11,900  Climbing Vancouver Center
03:21PM 49.3167 -120.2167 270° West 140 161 11,900  Level Vancouver Center
03:22PM 49.3167 -120.2667 270° West 140 161 11,900 -60 Level Vancouver Center
03:24PM 49.3167 -120.4000 270° West 140 161 11,800  Descending Vancouver Center
03:25PM 49.3167 -120.4500 270° West 140 161 11,900  Climbing Vancouver Center
03:26PM 49.3333 -120.5000 297° West 140 161 11,900  Level Vancouver Center
03:27PM 49.3500 -120.5667 291° West 140 161 11,900  Level Vancouver Center
03:28PM 49.3500 -120.6167 270° West 140 161 11,900  Level Vancouver Center
03:29PM 49.3500 -120.7000 270° West 140 161 12,000  Climbing Vancouver Center
03:30PM 49.3500 -120.7500 270° West 140 161 12,000  Level Vancouver Center
03:31PM 49.3500 -120.8000 270° West 140 161 12,000  Level Vancouver Center
03:32PM 49.3500 -120.8500 270° West 140 161 12,000  Level Vancouver Center
03:33PM 49.3500 -120.9333 270° West 150 173 12,000  Level Vancouver Center
03:34PM 49.3500 -120.9833 270° West 140 161 12,000  Level Vancouver Center
03:35PM 49.3500 -121.0500 270° West 140 161 12,000 -60 Level Vancouver Center
03:36PM 49.3500 -121.1000 270° West 140 161 11,900  Descending Vancouver Center
03:37PM 49.3500 -121.1667 270° West 140 161 12,000  Climbing Vancouver Center
03:38PM 49.3833 -121.2333 308° West 140 161 12,000 -240 Level Vancouver Center
03:39PM 49.3667 -121.2833 243° Southwest 150 173 11,600 -540 Descending Vancouver Center
03:40PM 49.3833 -121.3667 287° West 160 184 11,000 -480 Descending Vancouver Center
03:41PM 49.3833 -121.4333 270° West 160 184 10,700 -420 Descending Vancouver Center
03:42PM 49.3667 -121.5000 249° West 160 184 10,200 -540 Descending Vancouver Center
03:43PM 49.3500 -121.5667 249° West 160 184 9,700 -480 Descending Vancouver Center
03:44PM 49.3333 -121.6167 243° Southwest 160 184 9,300 -360 Descending Vancouver Center
03:45PM 49.3333 -121.7000 270° West 160 184 9,000 -240 Descending Vancouver Center
03:46PM 49.3167 -121.7500 243° Southwest 150 173 8,900 -60 Descending Vancouver Center
03:47PM 49.3000 -121.8000 243° Southwest 150 173 8,900 -60 Level Vancouver Center
03:48PM 49.2667 -121.8500 224° Southwest 150 173 8,800 -300 Descending Vancouver Center
03:49PM 49.2333 -121.8833 213° Southwest 160 184 8,300 -480 Descending Vancouver Center
03:50PM 49.2000 -121.9333 224° Southwest 160 184 7,900 -480 Descending Vancouver Center
03:51PM 49.1667 -121.9833 224° Southwest 160 184 7,400 -480 Descending Vancouver Center
03:52PM 49.1333 -122.0333 224° Southwest 160 184 7,000 -420 Descending Vancouver Center
03:53PM 49.0833 -122.0667 204° Southwest 160 184 6,600 -720 Descending Vancouver Center
03:54PM 49.0667 -122.1167 243° Southwest 160 184 5,600 -960 Descending Vancouver Center
03:55PM 49.0333 -122.1500 213° Southwest 160 184 4,700 -900 Descending Vancouver Center
03:56PM 49.0167 -122.2000 243° Southwest 130 150 3,800 -900 Descending Vancouver Center
03:57PM 49.0333 -122.1500 63° Northeast 120 138 3,000 -780 Descending Vancouver Center
03:58PM 49.0167 -122.1667 213° Southwest 110 127 2,300 -660 Descending Vancouver Center
03:59PM 49.0167 -122.2500 270° West 120 138 1,700 -600 Descending Vancouver Center
04:00PM 49.0167 -122.2667 270° West 100 115 1,100 -600 Descending Vancouver Center
04:01PM 49.0167 -122.3167 270° West 90 104 600 -540 Descending Vancouver Center